Time;durP1;ratioP1;P1;durP2;ratioP2;P2;SDS_P1;SDS_P2;PMS_P1;PMS_P2;Temp;Humidity;BMP_temperature;BMP_pressure;BME280_temperature;BME280_humidity;BME280_pressure;Samples;Min_cycle;Max_cycle;Signal;HPM_P1;HPM_P2
2021/07/05 00:01:15;;;;;;;2.65;2.13;;;21.60;72.20;;;;;;10419620;28;20416;-59
2021/07/05 00:06:16;;;;;;;2.85;2.38;;;21.60;72.20;;;;;;10419550;28;20033;-59
2021/07/05 00:11:17;;;;;;;3.13;2.60;;;21.60;72.20;;;;;;10419869;28;20078;-59
2021/07/05 00:16:18;;;;;;;3.65;2.30;;;21.50;72.10;;;;;;10405613;28;20174;-60
2021/07/05 00:21:18;;;;;;;3.45;2.17;;;21.50;72.20;;;;;;10424722;28;20456;-57
2021/07/05 00:26:19;;;;;;;2.90;2.47;;;21.50;72.10;;;;;;10418582;28;20406;-60
2021/07/05 00:31:20;;;;;;;3.67;2.28;;;21.50;72.10;;;;;;10419032;28;20029;-60
2021/07/05 00:36:21;;;;;;;4.82;2.63;;;21.50;72.10;;;;;;10418832;28;20038;-60
2021/07/05 00:41:22;;;;;;;3.03;2.60;;;21.50;72.10;;;;;;10418091;28;20045;-60
2021/07/05 00:46:24;;;;;;;3.05;2.75;;;21.50;72.10;;;;;;10418260;28;20054;-60
2021/07/05 00:51:26;;;;;;;2.72;2.17;;;21.50;72.10;;;;;;10418159;28;20029;-60
2021/07/05 00:56:26;;;;;;;3.67;2.20;;;21.50;72.10;;;;;;10417979;28;20026;-60
2021/07/05 01:01:27;;;;;;;3.00;2.42;;;21.50;72.00;;;;;;10417954;28;20092;-59
2021/07/05 01:06:28;;;;;;;3.25;2.10;;;21.50;72.00;;;;;;10417401;28;20029;-60
2021/07/05 01:11:29;;;;;;;2.40;1.92;;;21.50;72.00;;;;;;10417082;28;20108;-60
2021/07/05 01:16:30;;;;;;;2.58;2.05;;;21.50;72.00;;;;;;10404022;28;20116;-60
2021/07/05 01:21:30;;;;;;;2.72;2.20;;;21.50;72.00;;;;;;10422459;28;20045;-60
2021/07/05 01:26:31;;;;;;;2.92;2.35;;;21.50;72.10;;;;;;10416379;28;20049;-58
2021/07/05 01:31:34;;;;;;;3.08;2.20;;;21.50;72.20;;;;;;10415571;28;20025;-60
2021/07/05 01:36:35;;;;;;;3.50;2.70;;;21.50;72.10;;;;;;10416691;28;20425;-59
2021/07/05 01:41:35;;;;;;;2.30;1.98;;;21.50;72.00;;;;;;10415431;28;20048;-58
2021/07/05 01:46:36;;;;;;;2.85;2.20;;;21.50;72.00;;;;;;10415698;28;20075;-59
2021/07/05 01:51:37;;;;;;;3.58;2.15;;;21.50;72.00;;;;;;10415980;28;20029;-60
2021/07/05 01:56:38;;;;;;;3.85;2.20;;;21.50;72.00;;;;;;10415859;28;20397;-60
2021/07/05 02:01:40;;;;;;;3.25;2.03;;;21.40;71.80;;;;;;10415430;28;20033;-60
2021/07/05 02:06:40;;;;;;;2.85;2.33;;;21.40;71.80;;;;;;10415278;28;20037;-59
2021/07/05 02:11:41;;;;;;;2.65;2.03;;;21.40;71.80;;;;;;10415143;28;20082;-58
2021/07/05 02:16:42;;;;;;;3.97;2.35;;;21.40;71.90;;;;;;10401943;28;20022;-60
2021/07/05 02:21:43;;;;;;;2.60;2.15;;;21.40;71.90;;;;;;10419999;28;20087;-59
2021/07/05 02:26:44;;;;;;;2.28;1.98;;;21.40;71.80;;;;;;10414389;28;20057;-60
2021/07/05 02:31:45;;;;;;;2.38;1.98;;;21.40;71.80;;;;;;10414564;28;20029;-60
2021/07/05 02:36:45;;;;;;;2.38;1.80;;;21.40;71.80;;;;;;10414568;28;20052;-60
2021/07/05 02:41:46;;;;;;;2.63;2.10;;;21.40;71.80;;;;;;10413421;28;20048;-60
2021/07/05 02:46:47;;;;;;;2.58;1.92;;;21.40;71.80;;;;;;10414082;28;20025;-60
2021/07/05 02:51:48;;;;;;;2.38;2.00;;;21.40;71.80;;;;;;10413820;28;20037;-60
2021/07/05 02:56:48;;;;;;;3.25;2.38;;;21.40;71.80;;;;;;10414192;28;20462;-60
2021/07/05 03:01:49;;;;;;;2.70;2.00;;;21.40;71.80;;;;;;10413491;28;20442;-58
2021/07/05 03:06:50;;;;;;;3.28;2.25;;;21.40;71.80;;;;;;10413896;28;20025;-60
2021/07/05 03:11:50;;;;;;;2.38;1.80;;;21.40;71.80;;;;;;10413717;28;20645;-60
2021/07/05 03:16:51;;;;;;;2.05;1.52;;;21.40;71.80;;;;;;10400512;28;20486;-60
2021/07/05 03:21:52;;;;;;;2.78;2.10;;;21.30;71.80;;;;;;10418491;28;20489;-59
2021/07/05 03:26:52;;;;;;;2.22;2.03;;;21.40;71.90;;;;;;10412766;28;20073;-60
2021/07/05 03:31:53;;;;;;;3.10;2.38;;;21.40;71.90;;;;;;10412492;28;20120;-60
2021/07/05 03:36:54;;;;;;;2.47;1.98;;;21.30;71.90;;;;;;10410720;28;20124;-58
2021/07/05 03:41:55;;;;;;;2.25;1.90;;;21.30;71.90;;;;;;10410782;28;20041;-59
2021/07/05 03:46:56;;;;;;;2.55;1.90;;;21.30;71.90;;;;;;10412717;28;20489;-60
2021/07/05 03:51:56;;;;;;;2.42;1.90;;;21.30;71.70;;;;;;10413600;28;20041;-59
2021/07/05 03:56:57;;;;;;;2.80;1.80;;;21.30;71.80;;;;;;10419936;28;20033;-59
2021/07/05 04:01:58;;;;;;;2.00;1.60;;;21.30;71.70;;;;;;10419562;28;20099;-60
2021/07/05 04:06:59;;;;;;;2.42;1.80;;;21.30;71.70;;;;;;10417188;28;20120;-58
2021/07/05 04:12:00;;;;;;;2.05;1.40;;;21.30;71.70;;;;;;10418830;28;20442;-60
2021/07/05 04:17:01;;;;;;;2.70;1.77;;;21.30;72.30;;;;;;10417151;28;20082;-59
2021/07/05 04:22:03;;;;;;;3.17;2.15;;;21.30;71.70;;;;;;10415091;28;20059;-60
2021/07/05 04:27:04;;;;;;;3.17;1.38;;;21.30;72.30;;;;;;10408225;28;20029;-60
2021/07/05 04:32:06;;;;;;;2.50;2.05;;;21.30;71.70;;;;;;10418037;28;20485;-60
2021/07/05 04:37:07;;;;;;;2.53;1.90;;;21.30;71.90;;;;;;10418165;28;20187;-60
2021/07/05 04:42:08;;;;;;;3.00;1.67;;;21.30;72.30;;;;;;10418373;28;20091;-61
2021/07/05 04:47:10;;;;;;;7.57;2.50;;;21.30;72.00;;;;;;10418064;28;20055;-63
2021/07/05 04:52:11;;;;;;;4.47;2.00;;;21.30;72.20;;;;;;10417980;28;20029;-60
2021/07/05 04:57:12;;;;;;;5.22;2.28;;;21.30;72.30;;;;;;10418033;28;20490;-63
2021/07/05 05:02:13;;;;;;;4.00;1.85;;;21.40;72.60;;;;;;10417132;28;20056;-63
2021/07/05 05:07:13;;;;;;;5.25;2.03;;;21.40;72.70;;;;;;10416722;28;20068;-62
2021/07/05 05:12:14;;;;;;;4.97;2.15;;;21.40;72.70;;;;;;10417273;28;20529;-62
2021/07/05 05:17:15;;;;;;;5.97;1.90;;;21.40;72.70;;;;;;10403838;28;20045;-62
2021/07/05 05:22:16;;;;;;;3.47;1.95;;;21.40;72.70;;;;;;10421876;28;20600;-63
2021/07/05 05:27:17;;;;;;;3.55;1.60;;;21.40;72.50;;;;;;10415428;28;20127;-63
2021/07/05 05:32:18;;;;;;;1.70;1.35;;;21.40;72.40;;;;;;10416235;28;20116;-62
2021/07/05 05:37:18;;;;;;;2.78;1.95;;;21.30;72.20;;;;;;10416044;28;20033;-63
2021/07/05 05:42:19;;;;;;;8.35;2.20;;;21.30;72.20;;;;;;10415160;28;20048;-60
2021/07/05 05:47:20;;;;;;;4.32;1.90;;;21.30;72.70;;;;;;10415192;28;20021;-58
2021/07/05 05:52:20;;;;;;;13.75;2.70;;;21.40;73.00;;;;;;10415244;28;20084;-60
2021/07/05 05:57:28;;;;;;;12.10;2.25;;;21.40;72.90;;;;;;10414357;28;20076;-61
2021/07/05 06:02:29;;;;;;;22.38;3.88;;;21.40;72.80;;;;;;10395723;28;20155;-59
2021/07/05 06:07:30;;;;;;;13.73;3.05;;;21.40;72.90;;;;;;10407852;28;20482;-60
2021/07/05 06:12:31;;;;;;;12.40;1.98;;;21.40;73.00;;;;;;10408219;28;20091;-61
2021/07/05 06:17:31;;;;;;;8.23;2.38;;;21.40;72.60;;;;;;10400495;28;20033;-61
2021/07/05 06:22:39;;;;;;;8.30;2.70;;;21.40;72.70;;;;;;10411729;28;20136;-60
2021/07/05 06:27:40;;;;;;;4.22;2.53;;;21.30;72.40;;;;;;10405845;28;20473;-61
2021/07/05 06:32:42;;;;;;;8.63;2.17;;;21.30;72.20;;;;;;10406166;28;20061;-60
2021/07/05 06:37:43;;;;;;;5.60;2.53;;;21.30;72.10;;;;;;10407523;28;20535;-60
2021/07/05 06:42:43;;;;;;;4.85;2.17;;;21.30;71.90;;;;;;10407514;28;20041;-60
2021/07/05 06:47:44;;;;;;;5.15;1.63;;;21.30;71.80;;;;;;10406955;28;20040;-60
2021/07/05 06:52:45;;;;;;;4.05;1.70;;;21.30;71.90;;;;;;10406831;28;20041;-60
2021/07/05 06:57:46;;;;;;;6.47;1.80;;;21.30;72.00;;;;;;10397251;28;20055;-61
2021/07/05 07:02:48;;;;;;;4.30;1.90;;;21.30;72.10;;;;;;10406143;28;20481;-61
2021/07/05 07:07:52;;;;;;;6.20;2.72;;;21.30;72.70;;;;;;10406719;28;20069;-61
2021/07/05 07:12:55;;;;;;;11.50;3.25;;;21.30;72.20;;;;;;10401381;28;20041;-60
2021/07/05 07:23:05;;;;;;;8.90;2.00;;;21.30;72.70;;;;;;10410292;28;20117;-60
2021/07/05 07:28:06;;;;;;;7.78;2.35;;;21.30;72.90;;;;;;10409709;28;20132;-59
2021/07/05 07:33:07;;;;;;;9.65;2.45;;;21.30;73.00;;;;;;10413690;28;20033;-60
2021/07/05 07:38:07;;;;;;;16.63;3.05;;;21.30;73.00;;;;;;10413435;28;20037;-60
2021/07/05 07:43:08;;;;;;;16.55;3.00;;;21.30;73.10;;;;;;10412049;28;20520;-61
2021/07/05 07:48:09;;;;;;;10.02;2.42;;;21.30;73.10;;;;;;10410822;28;20029;-59
2021/07/05 07:53:10;;;;;;;8.35;3.03;;;21.30;73.10;;;;;;10413530;28;20037;-59
2021/07/05 07:58:10;;;;;;;6.82;2.22;;;21.30;73.00;;;;;;10412708;28;20112;-59
2021/07/05 08:03:12;;;;;;;7.25;2.15;;;21.30;72.70;;;;;;10412383;28;20440;-57
2021/07/05 08:08:15;;;;;;;8.95;3.10;;;21.30;72.70;;;;;;10413068;28;20033;-59
2021/07/05 08:13:16;;;;;;;8.77;3.03;;;21.30;72.60;;;;;;10399856;28;20420;-59
2021/07/05 08:18:16;;;;;;;5.05;1.80;;;21.30;72.50;;;;;;10412768;28;20112;-60
2021/07/05 08:23:17;;;;;;;8.02;2.17;;;21.30;72.50;;;;;;10411938;28;20551;-60
2021/07/05 08:28:18;;;;;;;4.07;2.15;;;21.20;72.30;;;;;;10411458;28;20036;-59
2021/07/05 08:33:18;;;;;;;4.97;2.72;;;21.30;72.40;;;;;;10410625;28;20037;-60
2021/07/05 08:38:20;;;;;;;5.32;2.38;;;21.30;72.30;;;;;;10406492;28;20128;-59
2021/07/05 08:43:27;;;;;;;5.80;2.38;;;21.30;72.40;;;;;;10409722;28;20486;-58
2021/07/05 08:48:40;;;;;;;4.63;2.22;;;21.30;72.30;;;;;;10405915;28;20071;-61
2021/07/05 08:53:42;;;;;;;5.63;2.42;;;21.30;72.70;;;;;;10410525;28;20498;-61
2021/07/05 08:58:43;;;;;;;5.15;2.15;;;21.30;72.40;;;;;;10410154;28;20029;-60
2021/07/05 09:03:44;;;;;;;6.45;2.50;;;21.30;72.30;;;;;;10397768;28;20038;-63
2021/07/05 09:08:59;;;;;;;5.32;2.95;;;21.30;72.30;;;;;;10408724;28;20040;-59
2021/07/05 09:14:00;;;;;;;4.63;2.30;;;21.30;72.10;;;;;;10409386;28;20371;-59
2021/07/05 09:19:03;;;;;;;5.82;3.83;;;21.30;72.10;;;;;;10408505;28;20112;-59
2021/07/05 09:24:07;;;;;;;6.70;3.13;;;21.30;72.10;;;;;;10411641;28;20371;-59
2021/07/05 09:29:28;;;;;;;5.50;2.88;;;21.30;72.10;;;;;;10408158;28;20065;-60
2021/07/05 09:34:36;;;;;;;6.53;2.83;;;21.30;72.00;;;;;;10424039;28;20049;-60
2021/07/05 09:39:37;;;;;;;3.35;2.30;;;21.30;72.00;;;;;;10408630;28;20052;-59
2021/07/05 09:44:44;;;;;;;6.32;3.33;;;21.30;72.00;;;;;;10397455;28;20044;-59
2021/07/05 09:49:46;;;;;;;4.75;2.50;;;21.30;72.00;;;;;;10408340;28;20033;-59
2021/07/05 09:54:50;;;;;;;7.38;2.55;;;21.30;72.00;;;;;;10403735;28;20029;-59
2021/07/05 10:00:08;;;;;;;6.75;2.85;;;21.30;72.00;;;;;;10397776;28;20060;-59
2021/07/05 10:05:14;;;;;;;5.20;2.67;;;21.30;72.00;;;;;;10402974;28;20124;-59
2021/07/05 10:10:20;;;;;;;3.72;2.50;;;21.30;71.90;;;;;;10394301;28;20482;-59
2021/07/05 10:15:23;;;;;;;4.35;2.20;;;21.30;72.00;;;;;;10406941;28;20045;-59
2021/07/05 10:20:53;;;;;;;3.75;2.72;;;21.30;72.00;;;;;;10412682;28;20029;-59
2021/07/05 10:25:53;;;;;;;5.60;2.22;;;21.30;72.00;;;;;;10402612;28;20057;-57
2021/07/05 10:30:54;;;;;;;3.17;2.20;;;21.30;72.00;;;;;;10408027;28;20037;-58
2021/07/05 10:35:57;;;;;;;5.13;2.50;;;21.30;72.00;;;;;;10407849;28;20071;-58
2021/07/05 10:41:13;;;;;;;4.82;2.80;;;21.30;72.10;;;;;;10405846;28;20053;-59
2021/07/05 10:46:41;;;;;;;3.95;2.70;;;21.40;71.90;;;;;;10406823;28;20040;-59
2021/07/05 10:51:45;;;;;;;4.43;2.38;;;21.30;71.80;;;;;;10402858;28;20043;-58
2021/07/05 10:56:53;;;;;;;4.63;2.45;;;21.30;71.80;;;;;;10402390;28;20048;-60
2021/07/05 11:01:54;;;;;;;3.60;2.73;;;21.40;71.90;;;;;;10414159;28;20120;-62
2021/07/05 11:07:16;;;;;;;5.07;2.25;;;21.30;71.90;;;;;;10422061;28;20040;-58
2021/07/05 11:12:31;;;;;;;4.82;2.85;;;21.40;72.30;;;;;;10421548;28;20048;-61
2021/07/05 11:17:37;;;;;;;6.93;2.70;;;21.40;72.30;;;;;;10421150;28;20040;-58
2021/07/05 11:22:39;;;;;;;6.45;2.38;;;21.50;72.50;;;;;;10428237;28;20033;-60
2021/07/05 11:27:47;;;;;;;5.07;2.53;;;21.50;72.70;;;;;;10421358;28;20025;-58
2021/07/05 11:33:02;;;;;;;5.10;2.50;;;21.50;72.80;;;;;;10408711;28;20056;-59
2021/07/05 11:38:26;;;;;;;3.97;2.40;;;21.50;72.80;;;;;;10421225;28;20116;-61
2021/07/05 11:44:03;;;;;;;6.80;2.63;;;21.50;72.70;;;;;;10405555;28;20481;-62
2021/07/05 11:49:14;;;;;;;10.63;3.10;;;21.50;72.70;;;;;;10419255;28;20065;-63
2021/07/05 11:54:17;;;;;;;6.30;2.80;;;21.50;72.30;;;;;;10420384;28;20041;-63
2021/07/05 11:59:24;;;;;;;6.05;3.17;;;21.50;72.30;;;;;;10419419;28;20028;-63
2021/07/05 12:04:41;;;;;;;7.50;2.92;;;21.50;72.60;;;;;;10419518;28;20037;-63
2021/07/05 12:09:44;;;;;;;4.13;2.47;;;21.40;72.60;;;;;;10417395;28;20041;-63
2021/07/05 12:14:47;;;;;;;6.38;2.58;;;21.50;72.70;;;;;;10418763;28;20044;-63
2021/07/05 12:19:52;;;;;;;3.47;2.28;;;21.50;72.60;;;;;;10418545;28;20029;-62
2021/07/05 12:24:59;;;;;;;3.85;1.95;;;21.50;72.50;;;;;;10406324;28;20426;-63
2021/07/05 12:30:03;;;;;;;5.35;2.20;;;21.50;72.40;;;;;;10419358;28;20437;-64
2021/07/05 12:35:15;;;;;;;9.43;2.80;;;21.40;72.70;;;;;;10413475;28;20037;-63
2021/07/05 12:40:32;;;;;;;12.48;3.17;;;21.50;73.00;;;;;;10413050;28;20595;-61
2021/07/05 12:45:35;;;;;;;6.60;3.10;;;21.50;73.00;;;;;;10410436;28;20108;-62
2021/07/05 12:50:42;;;;;;;8.70;3.25;;;21.50;73.20;;;;;;10410682;28;20022;-63
2021/07/05 12:55:55;;;;;;;10.77;2.67;;;21.50;73.10;;;;;;10411812;28;20049;-62
2021/07/05 13:00:55;;;;;;;12.95;3.33;;;21.50;73.10;;;;;;10412102;28;20041;-63
2021/07/05 13:06:09;;;;;;;12.02;2.97;;;21.50;73.40;;;;;;10408886;28;20035;-62
2021/07/05 13:11:16;;;;;;;9.85;3.58;;;21.60;74.00;;;;;;10412154;28;20104;-63
2021/07/05 13:16:25;;;;;;;6.82;2.67;;;21.60;73.50;;;;;;10412491;28;20381;-63
2021/07/05 13:21:37;;;;;;;19.75;3.30;;;21.60;73.40;;;;;;10408666;28;20029;-62
2021/07/05 13:26:38;;;;;;;13.25;2.95;;;21.60;73.50;;;;;;10406198;28;20084;-61
2021/07/05 13:31:40;;;;;;;12.20;3.00;;;21.60;73.50;;;;;;10381687;28;20100;-61
2021/07/05 13:36:54;;;;;;;20.50;3.90;;;21.60;73.30;;;;;;10410846;28;20064;-60
2021/07/05 13:42:21;;;;;;;6.95;3.35;;;21.60;73.30;;;;;;10422295;28;20058;-60
2021/07/05 13:47:27;;;;;;;12.65;2.70;;;21.60;73.00;;;;;;10423994;28;20099;-60
2021/07/05 13:52:35;;;;;;;9.95;3.63;;;21.60;73.00;;;;;;10387239;28;20033;-60
2021/07/05 13:57:36;;;;;;;5.47;2.78;;;21.60;73.00;;;;;;10409353;28;20063;-60
2021/07/05 14:02:36;;;;;;;9.10;3.80;;;21.60;73.40;;;;;;10411064;28;20025;-60
2021/07/05 14:07:37;;;;;;;3.90;2.60;;;21.60;72.80;;;;;;10414122;28;20112;-60
2021/07/05 14:12:38;;;;;;;6.75;2.58;;;21.60;72.70;;;;;;10401846;28;20069;-60
2021/07/05 14:17:39;;;;;;;9.07;3.67;;;21.60;72.70;;;;;;10404712;28;20037;-60
2021/07/05 14:22:40;;;;;;;5.78;2.80;;;21.60;72.60;;;;;;10406890;28;20032;-60
2021/07/05 14:27:42;;;;;;;8.80;2.47;;;21.60;72.60;;;;;;10400705;28;20037;-61
2021/07/05 14:32:43;;;;;;;4.60;2.38;;;21.60;72.50;;;;;;10413799;28;20084;-61
2021/07/05 14:37:44;;;;;;;7.25;2.65;;;21.70;72.50;;;;;;10412677;28;20036;-60
2021/07/05 14:42:45;;;;;;;3.85;1.95;;;21.60;73.00;;;;;;10408848;28;20045;-58
2021/07/05 14:47:48;;;;;;;5.88;2.83;;;21.60;72.40;;;;;;10399290;28;20028;-59
2021/07/05 14:52:49;;;;;;;5.80;2.35;;;21.70;72.40;;;;;;10410813;28;20025;-59
2021/07/05 14:57:52;;;;;;;4.75;2.90;;;21.60;72.30;;;;;;10409842;28;20047;-58
2021/07/05 15:02:54;;;;;;;5.80;2.10;;;21.70;72.30;;;;;;10409543;28;20078;-60
2021/07/05 15:07:55;;;;;;;3.88;1.80;;;21.70;72.30;;;;;;10390163;28;20037;-61
2021/07/05 15:12:59;;;;;;;10.88;2.75;;;21.70;72.20;;;;;;10400612;28;20026;-61
2021/07/05 15:18:00;;;;;;;5.32;2.20;;;21.60;72.10;;;;;;10402977;28;20037;-61
2021/07/05 15:23:06;;;;;;;6.60;2.70;;;21.60;72.10;;;;;;10413214;28;20025;-61
2021/07/05 15:28:08;;;;;;;4.20;2.03;;;21.70;72.70;;;;;;10396814;28;20056;-60
2021/07/05 15:33:09;;;;;;;4.80;2.10;;;21.70;72.00;;;;;;10406351;28;20032;-60
2021/07/05 15:38:14;;;;;;;4.53;2.80;;;21.70;72.00;;;;;;10408239;28;20040;-60
2021/07/05 15:43:15;;;;;;;6.28;2.13;;;21.60;71.90;;;;;;10402022;28;20041;-63
2021/07/05 15:48:17;;;;;;;10.70;3.97;;;21.70;71.90;;;;;;10394070;28;20074;-62
2021/07/05 15:53:18;;;;;;;12.00;2.75;;;21.70;71.90;;;;;;10412108;28;20059;-61
2021/07/05 15:58:18;;;;;;;13.10;3.45;;;21.70;71.90;;;;;;10414752;28;20102;-62
2021/07/05 16:03:21;;;;;;;33.10;12.55;;;21.70;72.00;;;;;;10395517;28;20073;-63
2021/07/05 16:08:21;;;;;;;14.43;6.88;;;21.70;74.40;;;;;;10415080;28;20059;-62
2021/07/05 16:13:23;;;;;;;25.73;13.90;;;21.80;73.10;;;;;;10409051;28;20029;-61
2021/07/05 16:18:24;;;;;;;11.52;7.57;;;21.80;72.40;;;;;;10414282;28;20040;-63
2021/07/05 16:23:25;;;;;;;15.60;6.03;;;21.80;72.70;;;;;;10424989;28;20030;-60
2021/07/05 16:28:26;;;;;;;10.40;5.10;;;21.80;72.80;;;;;;10419590;28;20389;-63
2021/07/05 16:33:27;;;;;;;15.48;5.90;;;21.80;72.90;;;;;;10418850;28;20363;-60
2021/07/05 16:38:29;;;;;;;11.95;5.07;;;21.90;72.60;;;;;;10419120;28;20033;-64
2021/07/05 16:43:30;;;;;;;10.68;4.70;;;21.90;72.00;;;;;;10418759;28;20409;-65
2021/07/05 16:48:31;;;;;;;6.93;4.63;;;21.90;72.10;;;;;;10418475;28;20061;-65
2021/07/05 16:53:37;;;;;;;9.20;4.35;;;21.90;71.80;;;;;;10418778;28;20127;-63
2021/07/05 16:58:39;;;;;;;5.95;3.40;;;21.80;71.50;;;;;;10418042;28;20037;-62
2021/07/05 17:03:45;;;;;;;7.13;3.53;;;21.90;71.40;;;;;;10416963;28;20168;-61
2021/07/05 17:08:45;;;;;;;6.07;3.65;;;21.80;71.30;;;;;;10418420;28;20041;-60
2021/07/05 17:13:46;;;;;;;6.72;3.78;;;21.80;71.10;;;;;;10413310;28;20057;-62
2021/07/05 17:18:47;;;;;;;8.25;3.70;;;21.80;71.20;;;;;;10416783;28;20083;-62
2021/07/05 17:23:49;;;;;;;6.38;3.67;;;21.80;71.10;;;;;;10412820;28;20057;-64
2021/07/05 17:28:50;;;;;;;7.45;3.92;;;21.80;72.10;;;;;;10415788;28;20017;-62
2021/07/05 17:33:51;;;;;;;6.03;3.42;;;21.80;71.80;;;;;;10415824;28;20017;-62
2021/07/05 17:38:52;;;;;;;6.72;3.42;;;21.80;71.60;;;;;;10402901;28;20475;-62
2021/07/05 17:43:53;;;;;;;7.68;2.90;;;21.80;71.50;;;;;;10414120;28;20104;-63
2021/07/05 17:48:54;;;;;;;5.45;3.28;;;21.80;71.40;;;;;;10411559;28;20018;-64
2021/07/05 17:53:55;;;;;;;4.82;2.97;;;21.70;71.20;;;;;;10415876;28;20051;-62
2021/07/05 17:58:55;;;;;;;4.30;2.88;;;21.70;71.10;;;;;;10407386;28;20033;-62
2021/07/05 18:03:56;;;;;;;7.95;2.97;;;21.70;71.00;;;;;;10404045;28;20160;-62
2021/07/05 18:08:57;;;;;;;5.25;3.05;;;21.70;71.00;;;;;;10415033;28;20033;-62
2021/07/05 18:13:57;;;;;;;5.10;3.05;;;21.70;71.10;;;;;;10414916;28;20060;-62
2021/07/05 18:18:58;;;;;;;5.18;3.03;;;21.80;71.30;;;;;;10414077;28;20039;-62
2021/07/05 18:24:00;;;;;;;3.85;2.17;;;21.70;71.10;;;;;;10421126;28;20029;-62
2021/07/05 18:29:01;;;;;;;3.97;2.80;;;21.80;71.00;;;;;;10414931;28;20041;-62
2021/07/05 18:34:03;;;;;;;4.47;2.70;;;21.70;71.00;;;;;;10415179;28;20107;-63
2021/07/05 18:39:04;;;;;;;3.05;2.15;;;21.70;70.90;;;;;;10413816;28;20029;-61
2021/07/05 18:44:05;;;;;;;4.82;2.72;;;21.70;70.90;;;;;;10397536;28;20110;-61
2021/07/05 18:49:06;;;;;;;4.20;2.60;;;21.70;70.70;;;;;;10412665;28;20029;-61
2021/07/05 18:54:07;;;;;;;3.13;2.40;;;21.70;70.70;;;;;;10414047;28;20100;-61
2021/07/05 18:59:08;;;;;;;2.78;2.20;;;21.70;70.70;;;;;;10409997;28;20047;-60
2021/07/05 19:04:09;;;;;;;3.25;2.20;;;21.70;70.70;;;;;;10404322;28;20033;-61
2021/07/05 19:09:09;;;;;;;2.75;1.88;;;21.70;70.60;;;;;;10413357;28;20029;-61
2021/07/05 19:14:10;;;;;;;3.75;2.00;;;21.70;70.60;;;;;;10413548;28;20100;-59
2021/07/05 19:19:10;;;;;;;2.95;1.95;;;21.70;70.40;;;;;;10410811;28;20509;-62
2021/07/05 19:24:11;;;;;;;3.78;1.98;;;21.60;70.60;;;;;;10390475;28;20034;-60
2021/07/05 19:29:12;;;;;;;4.13;1.90;;;21.70;70.60;;;;;;10390419;28;20492;-61
2021/07/05 19:34:13;;;;;;;7.68;2.50;;;21.70;70.50;;;;;;10396231;28;20385;-60
2021/07/05 19:39:14;;;;;;;3.63;1.77;;;21.70;70.60;;;;;;10383095;28;20046;-60
2021/07/05 19:44:15;;;;;;;3.88;1.90;;;21.70;70.60;;;;;;10405540;28;20033;-60
2021/07/05 19:49:15;;;;;;;2.65;1.85;;;21.70;70.70;;;;;;10410820;28;20058;-60
2021/07/05 19:54:16;;;;;;;3.65;1.48;;;21.70;70.80;;;;;;10417327;28;20057;-60
2021/07/05 19:59:17;;;;;;;3.40;2.15;;;21.70;70.80;;;;;;10420021;28;20547;-61
2021/07/05 20:04:17;;;;;;;3.53;2.20;;;21.70;70.80;;;;;;10419101;28;20377;-61
2021/07/05 20:09:18;;;;;;;2.60;1.65;;;21.70;70.80;;;;;;10415940;28;20017;-62
2021/07/05 20:14:19;;;;;;;2.58;1.67;;;21.70;70.80;;;;;;10418361;28;20029;-61
2021/07/05 20:19:19;;;;;;;4.60;1.50;;;21.70;70.80;;;;;;10419724;28;20060;-64
2021/07/05 20:24:20;;;;;;;1.95;1.65;;;21.70;70.70;;;;;;10416613;28;20021;-64
2021/07/05 20:29:22;;;;;;;3.30;1.60;;;21.70;70.70;;;;;;10418040;28;20155;-63
2021/07/05 20:34:23;;;;;;;3.28;1.55;;;21.70;70.80;;;;;;10418717;28;20067;-63
2021/07/05 20:39:24;;;;;;;3.45;1.73;;;21.60;70.80;;;;;;10417793;28;20137;-64
2021/07/05 20:44:25;;;;;;;2.42;1.75;;;21.70;70.80;;;;;;10418750;28;20034;-64
2021/07/05 20:49:25;;;;;;;2.58;1.75;;;21.60;70.70;;;;;;10418654;28;20033;-63
2021/07/05 20:54:26;;;;;;;2.50;1.52;;;21.60;70.70;;;;;;10417786;28;20029;-64
2021/07/05 20:59:26;;;;;;;3.30;1.50;;;21.60;70.70;;;;;;10418437;28;20547;-64
2021/07/05 21:04:27;;;;;;;2.42;2.03;;;21.60;70.70;;;;;;10418044;28;20079;-64
2021/07/05 21:09:28;;;;;;;2.10;1.67;;;21.60;70.60;;;;;;10418522;28;20021;-64
2021/07/05 21:14:29;;;;;;;4.63;2.28;;;21.60;70.60;;;;;;10417431;28;20522;-63
2021/07/05 21:19:29;;;;;;;3.00;1.98;;;21.60;70.50;;;;;;10407542;28;20051;-64
2021/07/05 21:24:34;;;;;;;3.35;1.92;;;21.60;70.30;;;;;;10418768;28;20045;-64
2021/07/05 21:29:35;;;;;;;1.67;1.30;;;21.60;70.30;;;;;;10417261;28;20401;-63
2021/07/05 21:34:36;;;;;;;4.32;1.63;;;21.60;70.30;;;;;;10417138;28;20034;-64
2021/07/05 21:39:37;;;;;;;2.38;1.67;;;21.60;70.20;;;;;;10416580;28;20073;-64
2021/07/05 21:44:38;;;;;;;3.33;1.90;;;21.50;70.10;;;;;;10415504;28;20087;-63
2021/07/05 21:49:38;;;;;;;2.83;2.13;;;21.60;70.20;;;;;;10416500;28;20634;-63
2021/07/05 21:54:39;;;;;;;2.90;1.80;;;21.60;70.20;;;;;;10416122;28;20564;-64
2021/07/05 21:59:40;;;;;;;4.05;2.00;;;21.50;70.20;;;;;;10407109;28;20026;-64
2021/07/05 22:04:41;;;;;;;2.67;1.73;;;21.50;70.20;;;;;;10410621;28;20489;-63
2021/07/05 22:09:41;;;;;;;2.45;1.52;;;21.50;70.20;;;;;;10415962;28;20025;-63
2021/07/05 22:14:42;;;;;;;2.28;1.75;;;21.50;70.30;;;;;;10415124;28;20492;-64
2021/07/05 22:19:43;;;;;;;2.75;1.83;;;21.50;70.30;;;;;;10421219;28;20028;-62
2021/07/05 22:24:43;;;;;;;3.00;1.80;;;21.50;70.30;;;;;;10403905;28;20030;-64
2021/07/05 22:29:44;;;;;;;2.33;1.92;;;21.50;70.20;;;;;;10413615;28;20112;-64
2021/07/05 22:34:45;;;;;;;3.35;2.05;;;21.50;70.30;;;;;;10414770;28;20041;-63
2021/07/05 22:39:45;;;;;;;3.92;2.03;;;21.50;70.20;;;;;;10414597;28;20045;-63
2021/07/05 22:44:46;;;;;;;3.47;2.42;;;21.50;70.20;;;;;;10407463;28;20040;-64
2021/07/05 22:49:47;;;;;;;2.40;2.20;;;21.50;70.30;;;;;;10414420;28;20474;-63
2021/07/05 22:54:48;;;;;;;2.72;1.80;;;21.50;70.30;;;;;;10413464;28;20076;-64
2021/07/05 22:59:48;;;;;;;4.38;1.90;;;21.50;70.30;;;;;;10406479;28;20053;-63
2021/07/05 23:04:49;;;;;;;3.22;2.10;;;21.50;70.30;;;;;;10411441;28;20037;-63
2021/07/05 23:09:50;;;;;;;2.25;1.67;;;21.50;70.20;;;;;;10414540;28;20421;-63
2021/07/05 23:14:50;;;;;;;3.28;1.90;;;21.50;70.20;;;;;;10413917;28;20041;-64
2021/07/05 23:19:51;;;;;;;2.85;2.00;;;21.50;70.20;;;;;;10408680;28;20021;-63
2021/07/05 23:24:52;;;;;;;2.67;2.00;;;21.50;70.20;;;;;;10413621;28;20045;-64
2021/07/05 23:29:52;;;;;;;3.67;2.45;;;21.50;70.20;;;;;;10413708;28;20112;-64
2021/07/05 23:34:53;;;;;;;4.40;2.67;;;21.50;70.20;;;;;;10413639;28;20444;-64
2021/07/05 23:39:54;;;;;;;3.78;2.65;;;21.50;70.40;;;;;;10413288;28;20080;-64
2021/07/05 23:44:54;;;;;;;5.57;3.05;;;21.50;70.40;;;;;;10412939;28;20120;-64
2021/07/05 23:49:55;;;;;;;3.85;2.83;;;21.50;70.50;;;;;;10413583;28;20053;-64
2021/07/05 23:54:56;;;;;;;4.28;3.45;;;21.50;70.60;;;;;;10413480;28;20061;-63
2021/07/05 23:59:56;;;;;;;7.95;5.03;;;21.50;70.70;;;;;;10412978;28;20061;-63
